Time;durP1;ratioP1;P1;durP2;ratioP2;P2;SDS_P1;SDS_P2;PMS_P1;PMS_P2;Temp;Humidity;BMP_temperature;BMP_pressure;BME280_temperature;BME280_humidity;BME280_pressure;Samples;Min_cycle;Max_cycle;Signal;HPM_P1;HPM_P2
2021/05/25 00:01:25;;;;;;;1.73;1.23;;;;;;;9.54;91.46;153810.25;5072188;28;20414;-86
2021/05/25 00:04:00;;;;;;;1.10;0.80;;;;;;;9.58;92.55;153820.56;5072746;28;20450;-86
2021/05/25 00:06:35;;;;;;;1.63;0.90;;;;;;;9.56;91.54;153815.41;5072569;28;20540;-86
2021/05/25 00:09:11;;;;;;;2.20;0.73;;;;;;;9.44;92.20;153783.06;5105798;28;20451;-86
2021/05/25 00:11:47;;;;;;;3.47;1.10;;;;;;;9.42;90.02;153777.91;5106189;28;20474;-86
2021/05/25 00:14:22;;;;;;;1.00;0.70;;;;;;;9.40;91.71;153774.00;5073464;28;20442;-86
2021/05/25 00:16:57;;;;;;;1.70;0.80;;;;;;;9.35;90.63;153759.75;5101761;28;20449;-86
2021/05/25 00:19:32;;;;;;;1.23;0.77;;;;;;;9.38;91.59;153768.84;5105571;28;20454;-86
2021/05/25 00:22:07;;;;;;;1.20;0.70;;;;;;;9.32;91.49;153752.03;5105589;28;20525;-86
2021/05/25 00:24:43;;;;;;;2.00;0.80;;;;;;;9.22;90.96;153727.44;5056113;28;20454;-86
2021/05/25 00:27:19;;;;;;;1.07;0.90;;;;;;;9.18;90.09;153718.41;5071805;28;20925;-86
2021/05/25 00:29:54;;;;;;;1.50;1.00;;;;;;;9.10;89.33;153696.41;5071899;28;20479;-86
2021/05/25 00:32:29;;;;;;;1.20;0.80;;;;;;;9.12;91.34;153701.59;5071682;28;20463;-86
2021/05/25 00:35:05;;;;;;;1.27;0.80;;;;;;;9.08;92.72;153691.25;5071245;28;20529;-86
2021/05/25 00:37:41;;;;;;;1.67;0.90;;;;;;;9.06;90.75;153687.34;5072903;28;20509;-86
2021/05/25 00:40:16;;;;;;;1.13;0.93;;;;;;;9.08;92.96;153691.25;5072251;28;20482;-86
2021/05/25 00:42:52;;;;;;;1.43;0.90;;;;;;;9.04;91.59;153682.19;5108704;28;20437;-86
2021/05/25 00:45:27;;;;;;;1.43;0.93;;;;;;;9.04;92.43;153680.88;5125892;28;20473;-86
2021/05/25 00:48:03;;;;;;;0.90;0.70;;;;;;;9.05;93.62;153683.50;5109923;28;20440;-86
2021/05/25 00:50:38;;;;;;;2.50;1.33;;;;;;;9.02;91.64;153675.72;5090132;28;20465;-86
2021/05/25 00:53:13;;;;;;;1.63;1.00;;;;;;;8.92;92.69;153651.13;5092387;28;20885;-85
2021/05/25 00:55:48;;;;;;;2.47;1.33;;;;;;;8.91;91.82;153648.56;5110002;28;20441;-86
2021/05/25 00:58:24;;;;;;;3.10;1.17;;;;;;;8.89;93.25;153642.13;5075182;28;21182;-86
2021/05/25 01:01:00;;;;;;;2.07;0.80;;;;;;;8.88;92.67;153640.81;5074263;28;21134;-86
2021/05/25 01:03:35;;;;;;;1.27;0.87;;;;;;;8.89;93.77;153643.41;5074926;28;20441;-86
2021/05/25 01:06:10;;;;;;;1.10;0.97;;;;;;;8.89;94.11;153642.13;5074861;28;20446;-86
2021/05/25 01:08:45;;;;;;;1.40;1.00;;;;;;;8.84;92.36;153629.19;5076230;28;20435;-86
2021/05/25 01:11:21;;;;;;;1.53;1.20;;;;;;;8.82;93.03;153623.97;5076115;28;20450;-86
2021/05/25 01:13:58;;;;;;;1.30;1.03;;;;;;;8.75;92.67;153607.19;5076133;28;21434;-86
2021/05/25 01:16:33;;;;;;;1.50;1.13;;;;;;;8.75;91.92;153605.91;5074405;28;20438;-86
2021/05/25 01:19:08;;;;;;;1.97;1.13;;;;;;;8.71;92.41;153595.56;5074331;28;20443;-86
2021/05/25 01:21:47;;;;;;;1.40;1.00;;;;;;;8.67;93.79;153585.22;5074724;28;20438;-86
2021/05/25 01:24:29;;;;;;;1.63;1.00;;;;;;;8.58;93.01;153564.53;5061017;28;20452;-86
2021/05/25 01:27:06;;;;;;;1.30;0.90;;;;;;;8.56;92.20;153559.38;5055891;28;20821;-86
2021/05/25 01:29:42;;;;;;;2.90;1.40;;;;;;;8.53;93.46;153550.28;5054369;28;20450;-86
2021/05/25 01:32:17;;;;;;;1.10;0.80;;;;;;;8.59;93.10;153565.81;5066388;28;20556;-86
2021/05/25 01:34:52;;;;;;;1.60;1.20;;;;;;;8.44;91.63;153527.06;5107981;28;20929;-85
2021/05/25 01:37:28;;;;;;;1.50;1.17;;;;;;;8.42;92.67;153521.84;5108151;28;20441;-85
2021/05/25 01:40:05;;;;;;;1.63;1.10;;;;;;;8.50;92.55;153542.53;5092035;28;20548;-86
2021/05/25 01:42:40;;;;;;;1.50;1.30;;;;;;;8.36;92.59;153507.69;5072702;28;20485;-86
2021/05/25 01:45:17;;;;;;;2.93;1.40;;;;;;;8.30;91.71;153490.84;5092199;28;20541;-85
2021/05/25 01:47:54;;;;;;;2.93;0.93;;;;;;;8.38;91.32;153511.53;5108197;28;20441;-85
2021/05/25 01:50:30;;;;;;;1.17;0.93;;;;;;;8.29;92.80;153488.25;5072217;28;20497;-86
2021/05/25 01:53:08;;;;;;;3.03;1.10;;;;;;;8.25;91.98;153479.19;5107474;28;20854;-85
2021/05/25 01:55:44;;;;;;;1.93;1.27;;;;;;;8.18;91.48;153461.06;5107780;28;20435;-85
2021/05/25 01:58:21;;;;;;;1.10;1.00;;;;;;;8.17;92.75;153457.19;5108047;28;20449;-85
2021/05/25 02:00:58;;;;;;;1.20;0.80;;;;;;;8.10;91.56;153440.38;5107345;28;20469;-85
2021/05/25 02:03:35;;;;;;;1.70;1.03;;;;;;;8.10;91.99;153439.13;5058426;28;20944;-85
2021/05/25 02:06:10;;;;;;;1.40;0.90;;;;;;;8.11;92.86;153441.69;5074153;28;20418;-85
2021/05/25 02:08:46;;;;;;;1.80;0.83;;;;;;;8.11;92.65;153443.00;5075488;28;20442;-85
2021/05/25 02:11:21;;;;;;;1.30;0.90;;;;;;;8.02;91.81;153418.44;5061322;28;20523;-85
2021/05/25 02:13:56;;;;;;;1.67;1.10;;;;;;;7.98;92.86;153409.41;5074192;28;20869;-85
2021/05/25 02:16:32;;;;;;;4.93;1.10;;;;;;;8.03;92.77;153422.31;5073340;28;20434;-85
2021/05/25 02:19:07;;;;;;;1.50;1.20;;;;;;;8.08;91.64;153433.94;5073854;28;20486;-85
2021/05/25 02:21:42;;;;;;;1.03;0.87;;;;;;;8.06;92.31;153428.75;5073706;28;20465;-86
2021/05/25 02:24:18;;;;;;;1.50;1.10;;;;;;;7.98;90.65;153409.41;5055748;28;20508;-84
2021/05/25 02:26:54;;;;;;;1.00;0.90;;;;;;;7.97;91.62;153408.09;5095741;28;20436;-84
2021/05/25 02:29:29;;;;;;;1.80;1.13;;;;;;;7.98;89.95;153409.41;5042630;28;20453;-85
2021/05/25 02:32:04;;;;;;;1.30;0.90;;;;;;;7.96;92.03;153404.22;5087964;28;20990;-85
2021/05/25 02:34:39;;;;;;;1.70;1.03;;;;;;;7.97;89.46;153408.09;5094346;28;20450;-85
2021/05/25 02:37:14;;;;;;;1.33;0.93;;;;;;;7.97;90.39;153408.09;5073401;28;20792;-85
2021/05/25 02:39:50;;;;;;;1.57;1.00;;;;;;;7.93;89.31;153396.47;5073176;28;20442;-85
2021/05/25 02:42:26;;;;;;;1.27;0.97;;;;;;;7.89;89.49;153386.13;5073281;28;20466;-85
2021/05/25 02:45:01;;;;;;;1.63;1.13;;;;;;;7.90;90.36;153388.72;5073392;28;20798;-85
2021/05/25 02:47:36;;;;;;;2.33;1.20;;;;;;;7.94;88.63;153399.09;5073120;28;20429;-85
2021/05/25 02:50:12;;;;;;;3.07;1.43;;;;;;;7.93;88.13;153396.47;5074176;28;20810;-85
2021/05/25 02:52:48;;;;;;;1.93;1.37;;;;;;;7.93;88.35;153396.47;5072962;28;20473;-85
2021/05/25 02:55:25;;;;;;;1.60;1.03;;;;;;;7.89;88.93;153386.13;5107132;28;20456;-85
2021/05/25 02:58:02;;;;;;;2.13;0.90;;;;;;;7.84;87.98;153374.50;5072962;28;20429;-85
2021/05/25 03:00:38;;;;;;;3.23;1.13;;;;;;;7.86;88.34;153378.41;5087475;28;20443;-85
2021/05/25 03:03:14;;;;;;;5.47;1.27;;;;;;;7.83;87.00;153370.66;5054091;28;20778;-85
2021/05/25 03:05:49;;;;;;;1.53;1.20;;;;;;;7.84;88.45;153373.19;5054158;28;20809;-85
2021/05/25 03:08:26;;;;;;;3.83;1.20;;;;;;;7.78;87.63;153358.97;5053170;28;20453;-85
2021/05/25 03:11:02;;;;;;;1.20;0.90;;;;;;;7.84;87.51;153373.19;5053716;28;20447;-85
2021/05/25 03:13:38;;;;;;;1.87;1.00;;;;;;;7.71;88.34;153339.63;5052667;28;20538;-85
2021/05/25 03:16:15;;;;;;;1.50;0.80;;;;;;;7.71;88.10;153339.63;5053423;28;20446;-85
2021/05/25 03:18:51;;;;;;;1.43;1.10;;;;;;;7.70;89.31;153338.38;5059643;28;20535;-85
2021/05/25 03:21:26;;;;;;;1.87;0.80;;;;;;;7.72;87.99;153343.53;5106623;28;20433;-85
2021/05/25 03:24:01;;;;;;;1.83;1.33;;;;;;;7.68;88.07;153331.84;5072792;28;20468;-85
2021/05/25 03:26:37;;;;;;;3.93;1.20;;;;;;;7.62;86.63;153317.69;5072368;28;20480;-85
2021/05/25 03:29:24;;;;;;;2.13;1.43;;;;;;;7.61;87.08;153313.78;5074066;28;20431;-85
2021/05/25 03:31:59;;;;;;;1.30;0.87;;;;;;;7.61;87.48;153315.09;5106075;28;20482;-85
2021/05/25 03:34:35;;;;;;;2.60;1.10;;;;;;;7.64;87.99;153321.56;5073897;28;20442;-85
2021/05/25 03:37:09;;;;;;;1.30;1.00;;;;;;;7.62;88.21;153316.41;5106230;28;20440;-85
2021/05/25 03:39:45;;;;;;;1.57;0.83;;;;;;;7.60;89.42;153311.25;5072137;28;20895;-85
2021/05/25 03:42:21;;;;;;;5.13;1.00;;;;;;;7.54;89.15;153295.72;5074291;28;20474;-85
2021/05/25 03:44:57;;;;;;;1.13;0.90;;;;;;;7.60;88.56;153312.50;5106380;28;20456;-85
2021/05/25 03:47:32;;;;;;;1.97;1.07;;;;;;;7.59;88.11;153308.63;5071944;28;20948;-85
2021/05/25 03:50:08;;;;;;;3.97;1.20;;;;;;;7.52;88.89;153290.56;5072120;28;20472;-85
2021/05/25 03:52:47;;;;;;;2.07;1.07;;;;;;;7.51;88.63;153289.28;5056974;28;20466;-85
2021/05/25 03:55:32;;;;;;;1.70;1.07;;;;;;;7.50;89.00;153285.38;5072415;28;20457;-84
2021/05/25 04:01:01;;;;;;;1.10;0.80;;;;;;;7.49;89.95;153282.81;5086147;28;20448;-85
2021/05/25 04:03:36;;;;;;;1.00;0.80;;;;;;;7.49;89.24;153282.81;5053375;28;20525;-85
2021/05/25 04:06:11;;;;;;;4.50;1.33;;;;;;;7.50;89.87;153285.38;5084360;28;20447;-84
2021/05/25 04:08:47;;;;;;;1.57;1.10;;;;;;;7.52;89.28;153291.81;5073172;28;20428;-85
2021/05/25 04:11:22;;;;;;;1.10;0.80;;;;;;;7.62;89.48;153317.69;5106061;28;20561;-85
2021/05/25 04:13:59;;;;;;;1.37;0.77;;;;;;;7.66;89.11;153328.00;5073275;28;20487;-85
2021/05/25 04:16:34;;;;;;;2.07;1.00;;;;;;;7.66;88.89;153326.72;5102789;28;20453;-84
2021/05/25 04:19:09;;;;;;;1.80;1.27;;;;;;;7.73;88.16;153344.81;5056358;28;20446;-84
2021/05/25 04:21:44;;;;;;;2.00;0.97;;;;;;;7.82;88.05;153368.03;5105815;28;20846;-85
2021/05/25 04:24:20;;;;;;;3.90;1.37;;;;;;;7.97;88.31;153408.09;5073465;28;20868;-85
2021/05/25 04:26:55;;;;;;;2.70;1.10;;;;;;;8.16;87.11;153454.59;5073415;28;20810;-85
2021/05/25 04:29:31;;;;;;;2.20;0.80;;;;;;;8.38;85.91;153512.84;5105820;28;20450;-85
2021/05/25 04:32:08;;;;;;;1.70;0.70;;;;;;;8.57;84.07;153560.66;5105624;28;20474;-84
2021/05/25 04:34:43;;;;;;;1.67;0.90;;;;;;;8.81;83.38;153621.41;5074445;28;20448;-85
2021/05/25 04:37:18;;;;;;;1.73;0.83;;;;;;;8.93;83.29;153652.44;5069263;28;20847;-85
2021/05/25 04:39:53;;;;;;;1.70;0.63;;;;;;;9.09;81.09;153693.81;5109857;28;20450;-85
2021/05/25 04:42:28;;;;;;;1.10;0.70;;;;;;;9.19;79.25;153719.69;5110033;28;20438;-85
2021/05/25 04:45:06;;;;;;;1.20;0.50;;;;;;;9.42;80.04;153779.22;5057352;28;20919;-85
2021/05/25 04:47:41;;;;;;;1.43;0.80;;;;;;;9.58;78.92;153820.56;5089403;28;20829;-85
2021/05/25 04:50:18;;;;;;;0.90;0.60;;;;;;;9.68;76.91;153846.47;5039925;28;20973;-85
2021/05/25 04:52:53;;;;;;;1.53;0.70;;;;;;;9.90;76.72;153900.81;5089475;28;20459;-85
2021/05/25 04:55:28;;;;;;;1.83;0.70;;;;;;;10.11;75.33;153955.19;5064426;28;20517;-85
2021/05/25 04:58:04;;;;;;;2.37;0.80;;;;;;;9.87;76.76;153894.34;5060862;28;20451;-85
2021/05/25 05:00:40;;;;;;;1.30;0.70;;;;;;;9.62;76.44;153830.94;5055717;28;20438;-85
2021/05/25 05:03:15;;;;;;;0.90;0.50;;;;;;;9.52;78.30;153803.78;5088583;28;20779;-85
2021/05/25 05:05:50;;;;;;;0.70;0.50;;;;;;;9.32;77.33;153752.03;5065846;28;20513;-85
2021/05/25 05:08:25;;;;;;;0.70;0.60;;;;;;;9.25;80.83;153735.22;5061964;28;20809;-85
2021/05/25 05:11:00;;;;;;;1.80;0.70;;;;;;;9.21;77.64;153723.59;5102365;28;20430;-85
2021/05/25 05:13:35;;;;;;;1.20;0.77;;;;;;;9.14;79.14;153706.75;5109786;28;20545;-85
2021/05/25 05:16:12;;;;;;;1.27;0.83;;;;;;;9.20;78.32;153722.28;5075162;28;20532;-85
2021/05/25 05:18:47;;;;;;;1.43;0.83;;;;;;;9.16;78.42;153713.22;5074527;28;20446;-85
2021/05/25 05:21:24;;;;;;;1.10;0.53;;;;;;;9.24;79.17;153731.34;5107542;28;20431;-85
2021/05/25 05:24:00;;;;;;;1.10;0.60;;;;;;;9.30;79.39;153748.13;5074079;28;20543;-85
2021/05/25 05:26:35;;;;;;;1.10;0.60;;;;;;;9.34;79.00;153758.50;5075990;28;20436;-85
2021/05/25 05:29:10;;;;;;;0.80;0.53;;;;;;;9.55;78.17;153812.84;5074487;28;20578;-85
2021/05/25 05:31:50;;;;;;;2.70;0.80;;;;;;;9.73;78.04;153859.41;5055620;28;20745;-86
2021/05/25 05:34:25;;;;;;;0.70;0.40;;;;;;;9.99;76.72;153925.38;5056434;28;20850;-86
2021/05/25 05:37:05;;;;;;;1.67;0.70;;;;;;;10.42;74.24;154035.47;5074091;28;20587;-89
2021/05/25 05:39:41;;;;;;;3.00;0.70;;;;;;;10.61;73.25;154084.69;5058741;28;20940;-85
2021/05/25 05:42:21;;;;;;;1.07;0.60;;;;;;;10.74;74.60;154117.03;5108478;28;20438;-88
2021/05/25 05:44:57;;;;;;;2.47;0.80;;;;;;;10.75;72.55;154119.66;5103572;28;20439;-86
2021/05/25 05:47:33;;;;;;;1.43;0.60;;;;;;;10.91;74.49;154162.34;5103345;28;20479;-87
2021/05/25 05:50:10;;;;;;;0.80;0.50;;;;;;;11.15;72.19;154223.22;5075282;28;21229;-86
2021/05/25 05:52:45;;;;;;;1.63;0.77;;;;;;;11.25;69.38;154249.13;5072218;28;20473;-86
2021/05/25 05:55:35;;;;;;;1.07;0.57;;;;;;;11.46;70.48;154302.28;5110606;27;20876;-88
2021/05/25 05:58:09;;;;;;;1.17;0.60;;;;;;;11.47;70.69;154304.84;5072372;28;20477;-87
2021/05/25 06:00:45;;;;;;;1.03;0.70;;;;;;;11.81;70.17;154393.00;5060637;28;20917;-87
2021/05/25 06:03:21;;;;;;;1.00;0.70;;;;;;;12.21;68.01;154496.72;5107644;28;20450;-88
2021/05/25 06:05:57;;;;;;;1.80;1.07;;;;;;;12.42;65.19;154548.56;5070732;28;21288;-87
2021/05/25 06:08:32;;;;;;;1.57;1.00;;;;;;;12.23;65.89;154499.34;5107594;28;20924;-86
2021/05/25 06:11:08;;;;;;;1.00;0.80;;;;;;;11.94;67.44;154426.72;5107587;28;20449;-86
2021/05/25 06:13:43;;;;;;;0.80;0.50;;;;;;;12.02;67.43;154446.19;5060316;28;20453;-87
2021/05/25 06:16:18;;;;;;;1.70;0.87;;;;;;;11.85;67.51;154402.09;5068237;28;20455;-86
2021/05/25 06:18:55;;;;;;;1.17;0.83;;;;;;;11.70;69.32;154364.53;5107148;28;20444;-87
2021/05/25 06:21:30;;;;;;;1.10;0.83;;;;;;;11.66;67.35;154354.09;5073151;28;20453;-86
2021/05/25 06:24:05;;;;;;;1.07;0.60;;;;;;;11.46;67.60;154302.28;5072971;28;20451;-87
2021/05/25 06:26:40;;;;;;;1.77;0.80;;;;;;;11.37;68.91;154278.94;5073103;28;20454;-86
2021/05/25 06:29:16;;;;;;;1.10;0.60;;;;;;;11.45;69.00;154299.69;5106354;28;20449;-86
2021/05/25 06:31:51;;;;;;;1.73;1.00;;;;;;;11.38;67.55;154281.56;5107927;27;20476;-86
2021/05/25 06:34:28;;;;;;;2.90;0.60;;;;;;;11.28;68.06;154255.66;5072999;28;20437;-86
2021/05/25 06:37:03;;;;;;;1.53;0.70;;;;;;;11.29;65.67;154258.22;5073168;28;20454;-86
2021/05/25 06:39:41;;;;;;;1.77;0.70;;;;;;;11.40;65.40;154286.72;5107047;28;20534;-88
2021/05/25 06:42:16;;;;;;;1.30;0.80;;;;;;;11.50;65.24;154312.63;5107068;28;20536;-88
2021/05/25 06:44:51;;;;;;;2.17;0.80;;;;;;;11.81;65.14;154393.00;5073093;28;20444;-88
2021/05/25 06:47:26;;;;;;;1.50;0.60;;;;;;;12.14;65.30;154478.59;5076618;28;20458;-88
2021/05/25 06:52:48;;;;;;;3.27;0.70;;;;;;;12.14;64.54;154477.28;5056976;28;20535;-86
2021/05/25 06:55:23;;;;;;;0.80;0.60;;;;;;;12.66;63.27;154610.81;5051322;28;20477;-88
2021/05/25 06:57:58;;;;;;;1.60;0.80;;;;;;;12.78;62.23;154643.28;5051645;28;20461;-87
2021/05/25 07:00:34;;;;;;;1.80;0.97;;;;;;;12.51;62.18;154571.94;5051234;28;20440;-87
2021/05/25 07:03:09;;;;;;;1.60;0.70;;;;;;;12.43;62.97;154551.19;5033503;28;20524;-86
2021/05/25 07:05:44;;;;;;;1.20;0.60;;;;;;;12.62;64.90;154601.78;5064677;28;20797;-90
2021/05/25 07:08:20;;;;;;;3.90;0.87;;;;;;;12.32;62.42;154523.94;5050682;28;20458;-83
2021/05/25 07:10:55;;;;;;;3.10;0.90;;;;;;;12.12;61.63;154472.13;5035255;28;20453;-85
2021/05/25 07:13:30;;;;;;;1.20;0.80;;;;;;;12.10;63.83;154468.19;5046533;28;20439;-86
2021/05/25 07:16:06;;;;;;;1.60;0.67;;;;;;;12.10;62.91;154468.19;5051251;28;20932;-85
2021/05/25 07:18:41;;;;;;;2.73;0.60;;;;;;;12.15;62.56;154481.16;5052074;28;20421;-85
2021/05/25 07:21:16;;;;;;;2.30;1.00;;;;;;;12.31;64.69;154520.09;5038089;28;20495;-85
2021/05/25 07:23:52;;;;;;;2.13;0.70;;;;;;;12.97;61.38;154689.97;5047468;28;20926;-86
2021/05/25 07:26:27;;;;;;;1.37;0.60;;;;;;;13.22;60.52;154754.88;5043429;28;20445;-85
2021/05/25 07:29:02;;;;;;;1.20;0.73;;;;;;;13.35;57.86;154789.91;5031312;28;20738;-85
2021/05/25 07:31:37;;;;;;;1.17;0.93;;;;;;;13.51;57.37;154830.13;5032146;28;20503;-86
2021/05/25 07:34:13;;;;;;;1.83;0.80;;;;;;;13.75;56.87;154891.13;5030160;28;20442;-86
2021/05/25 07:36:48;;;;;;;0.70;0.50;;;;;;;13.60;57.18;154852.22;5027555;28;21017;-85
2021/05/25 07:39:24;;;;;;;1.53;0.70;;;;;;;13.41;56.64;154805.50;5025441;28;20450;-86
2021/05/25 07:41:59;;;;;;;1.13;0.60;;;;;;;12.93;59.63;154680.88;5032226;28;20449;-86
2021/05/25 07:44:34;;;;;;;1.30;0.67;;;;;;;12.93;60.29;154680.88;5029316;28;20915;-86
2021/05/25 07:47:10;;;;;;;1.20;0.90;;;;;;;12.82;59.52;154653.63;5027718;28;20466;-86
2021/05/25 07:49:45;;;;;;;1.33;0.43;;;;;;;12.99;57.39;154695.16;5044825;28;20444;-85
2021/05/25 07:52:22;;;;;;;0.80;0.50;;;;;;;13.06;59.35;154713.28;5010836;28;20488;-85
2021/05/25 07:59:02;;;;;;;1.17;0.50;;;;;;;12.96;57.16;154688.66;5023253;28;20426;-85
2021/05/25 08:01:37;;;;;;;1.37;0.77;;;;;;;12.92;56.73;154677.00;5034061;28;20452;-85
2021/05/25 08:04:12;;;;;;;1.93;0.70;;;;;;;13.10;58.25;154725.06;5041878;28;20799;-85
2021/05/25 08:06:47;;;;;;;1.80;0.63;;;;;;;13.08;56.82;154719.81;5026998;28;20787;-85
2021/05/25 08:09:21;;;;;;;2.83;0.80;;;;;;;13.07;59.22;154715.97;5019379;28;20457;-85
2021/05/25 08:11:58;;;;;;;0.80;0.50;;;;;;;13.11;56.39;154727.63;5018553;28;20988;-85
2021/05/25 08:14:36;;;;;;;1.90;0.80;;;;;;;13.18;55.89;154745.81;5052150;28;20451;-86
2021/05/25 08:17:18;;;;;;;1.50;0.87;;;;;;;13.01;56.40;154700.31;5036178;28;20460;-85
2021/05/25 08:28:13;;;;;;;1.03;0.67;;;;;;;13.85;52.75;154917.06;5030912;28;20438;-85
2021/05/25 08:30:53;;;;;;;1.20;0.87;;;;;;;13.74;54.28;154889.81;5034672;28;20539;-85
2021/05/25 08:33:28;;;;;;;1.87;0.77;;;;;;;13.80;54.73;154904.09;5034594;28;20475;-86
2021/05/25 08:36:04;;;;;;;1.23;0.50;;;;;;;13.87;52.62;154922.31;5023794;28;20457;-85
2021/05/25 08:38:39;;;;;;;1.93;0.60;;;;;;;13.83;56.14;154911.91;5015138;28;20448;-86
2021/05/25 08:41:14;;;;;;;0.67;0.50;;;;;;;13.67;54.49;154870.34;5027295;28;20461;-86
2021/05/25 08:43:50;;;;;;;1.57;0.77;;;;;;;13.53;56.21;154834.06;5035978;28;20419;-86
2021/05/25 08:46:26;;;;;;;0.90;0.50;;;;;;;13.62;53.67;154858.69;5033547;28;20998;-86
2021/05/25 08:49:02;;;;;;;1.27;0.60;;;;;;;13.64;58.15;154862.56;5031795;28;20552;-86
2021/05/25 08:51:37;;;;;;;0.80;0.50;;;;;;;13.65;55.78;154866.50;5030017;28;20481;-85
2021/05/25 08:54:12;;;;;;;1.47;0.60;;;;;;;13.81;56.19;154908.03;5035586;28;20438;-85
2021/05/25 08:56:47;;;;;;;1.57;0.60;;;;;;;13.92;53.32;154936.59;5031865;28;20450;-85
2021/05/25 08:59:22;;;;;;;1.60;0.60;;;;;;;14.00;53.17;154956.06;5034100;28;20448;-86
2021/05/25 09:01:58;;;;;;;1.73;0.47;;;;;;;14.20;52.35;155007.97;5034675;28;20462;-86
2021/05/25 09:04:58;;;;;;;1.80;0.57;;;;;;;14.12;53.14;154987.19;5034639;28;20453;-86
2021/05/25 09:07:37;;;;;;;1.10;0.40;;;;;;;14.32;50.73;155039.16;5040513;28;20466;-85
2021/05/25 09:10:16;;;;;;;1.93;0.83;;;;;;;14.05;55.42;154969.03;5034252;28;20452;-85
2021/05/25 09:12:52;;;;;;;3.60;0.90;;;;;;;14.11;53.22;154983.31;5034537;28;20474;-85
2021/05/25 09:15:33;;;;;;;1.07;0.60;;;;;;;14.08;54.51;154976.84;5035628;28;20524;-85
2021/05/25 09:18:10;;;;;;;0.80;0.40;;;;;;;14.03;51.76;154963.84;5037367;28;20449;-85
2021/05/25 09:20:47;;;;;;;1.67;0.70;;;;;;;13.92;53.29;154936.59;5050885;28;20926;-85
2021/05/25 09:23:23;;;;;;;4.73;0.70;;;;;;;13.97;53.00;154948.25;5035842;28;20940;-85
2021/05/25 09:26:04;;;;;;;1.63;0.80;;;;;;;14.17;52.26;155000.19;5034566;28;20447;-85
2021/05/25 09:28:53;;;;;;;1.00;0.70;;;;;;;14.16;54.29;154996.31;5031335;28;20443;-85
2021/05/25 09:31:37;;;;;;;1.13;0.60;;;;;;;14.25;54.95;155020.94;5042937;28;20452;-85
2021/05/25 09:34:15;;;;;;;0.80;0.50;;;;;;;14.09;51.75;154979.41;5031304;28;20439;-86
2021/05/25 09:36:58;;;;;;;0.93;0.63;;;;;;;14.09;56.10;154979.41;5023996;28;20812;-85
2021/05/25 09:39:49;;;;;;;1.57;0.70;;;;;;;14.10;55.16;154982.03;5015581;28;20425;-86
2021/05/25 09:42:30;;;;;;;1.43;0.50;;;;;;;14.09;55.33;154979.41;5027542;28;20455;-85
2021/05/25 09:45:09;;;;;;;1.60;0.60;;;;;;;14.08;53.30;154976.84;5030901;28;20459;-85
2021/05/25 09:47:47;;;;;;;2.50;0.80;;;;;;;13.81;52.73;154906.72;5030809;28;20472;-85
2021/05/25 09:50:24;;;;;;;1.10;0.60;;;;;;;13.70;56.32;154879.47;5023393;28;20846;-86
2021/05/25 09:53:01;;;;;;;1.27;0.83;;;;;;;13.57;54.66;154844.41;5019546;28;20863;-86
2021/05/25 09:55:48;;;;;;;1.50;0.60;;;;;;;13.64;54.11;154862.56;5033329;28;20852;-85
2021/05/25 09:58:25;;;;;;;1.20;1.07;;;;;;;13.41;56.10;154805.50;5034193;28;20960;-86
2021/05/25 10:01:00;;;;;;;1.03;0.80;;;;;;;13.39;53.09;154800.31;5032800;28;20531;-86
2021/05/25 10:03:43;;;;;;;0.80;0.73;;;;;;;13.25;53.56;154762.66;5030118;28;20438;-86
2021/05/25 10:06:19;;;;;;;2.10;0.77;;;;;;;13.34;53.82;154786.03;5032736;28;20934;-85
2021/05/25 10:08:55;;;;;;;3.00;0.83;;;;;;;13.25;57.42;154763.97;5021934;28;20445;-86
2021/05/25 10:11:31;;;;;;;2.00;0.70;;;;;;;13.18;55.66;154744.50;5057844;28;20453;-84
2021/05/25 10:14:06;;;;;;;1.50;0.70;;;;;;;13.15;53.74;154738.03;5023644;28;20425;-87
2021/05/25 10:16:43;;;;;;;2.40;1.00;;;;;;;13.18;56.55;154745.81;5016320;28;20858;-85
2021/05/25 10:19:27;;;;;;;1.57;0.77;;;;;;;13.54;54.19;154836.63;5015442;28;20421;-85
2021/05/25 10:22:03;;;;;;;1.60;0.70;;;;;;;13.63;55.46;154860.00;5017990;28;20460;-85
2021/05/25 10:24:38;;;;;;;2.80;0.67;;;;;;;13.72;53.48;154883.34;5031499;28;20503;-85
2021/05/25 10:27:13;;;;;;;1.37;0.73;;;;;;;14.00;56.44;154957.31;5026146;28;20931;-85
2021/05/25 10:29:48;;;;;;;1.10;0.90;;;;;;;14.21;55.64;155010.59;5031054;28;20436;-85
2021/05/25 10:32:25;;;;;;;1.47;0.77;;;;;;;14.50;51.40;155085.97;5033229;28;20480;-85
2021/05/25 10:35:00;;;;;;;3.17;1.00;;;;;;;14.56;50.37;155101.50;5048336;28;20454;-85
2021/05/25 10:37:36;;;;;;;2.00;0.73;;;;;;;14.47;50.23;155078.16;5033589;28;20454;-85
2021/05/25 10:40:14;;;;;;;1.73;0.90;;;;;;;14.18;52.11;155002.78;5017819;28;20457;-85
2021/05/25 10:42:49;;;;;;;2.37;1.23;;;;;;;14.24;50.14;155018.38;5031760;28;20450;-86
2021/05/25 10:45:24;;;;;;;1.47;0.87;;;;;;;14.22;54.63;155013.16;5032985;28;20539;-86
2021/05/25 10:48:03;;;;;;;2.30;0.80;;;;;;;14.23;52.06;155015.78;5033100;28;20452;-86
2021/05/25 10:50:48;;;;;;;2.50;1.43;;;;;;;14.17;50.88;155000.19;5032885;28;20447;-86
2021/05/25 10:53:27;;;;;;;1.00;0.80;;;;;;;14.05;51.49;154969.03;5031033;28;20516;-86
2021/05/25 10:56:21;;;;;;;1.70;0.80;;;;;;;13.82;52.72;154910.59;5023826;28;20496;-86
2021/05/25 10:59:00;;;;;;;1.10;0.70;;;;;;;13.69;52.41;154875.53;5025172;28;20902;-86
2021/05/25 11:01:36;;;;;;;2.97;0.77;;;;;;;13.58;54.38;154847.03;5040709;28;20453;-86
2021/05/25 11:04:12;;;;;;;1.33;0.97;;;;;;;13.64;54.35;154862.56;5032263;28;20452;-85
2021/05/25 11:06:47;;;;;;;2.17;0.90;;;;;;;13.73;52.57;154887.25;5030538;28;20513;-86
2021/05/25 11:09:26;;;;;;;2.40;1.00;;;;;;;13.70;53.77;154878.16;5032629;28;20458;-85
2021/05/25 11:12:11;;;;;;;2.60;1.37;;;;;;;13.64;53.80;154862.56;5031996;28;20469;-85
2021/05/25 11:15:13;;;;;;;3.70;1.20;;;;;;;13.57;55.68;154844.41;5033829;28;20446;-85
2021/05/25 11:17:50;;;;;;;4.00;0.70;;;;;;;13.58;55.17;154847.03;5031213;28;20447;-86
2021/05/25 11:20:51;;;;;;;2.47;1.20;;;;;;;13.40;56.58;154802.88;5033720;28;20852;-86
2021/05/25 11:23:40;;;;;;;1.47;1.00;;;;;;;13.20;61.79;154749.69;5032362;28;20451;-85
2021/05/25 11:27:04;;;;;;;1.67;0.83;;;;;;;12.85;61.62;154660.13;5033142;28;20448;-85
2021/05/25 11:29:50;;;;;;;1.63;0.73;;;;;;;12.72;67.26;154627.72;5032425;28;20450;-90
2021/05/25 11:32:30;;;;;;;1.20;1.03;;;;;;;12.76;70.55;154636.81;5031675;28;20821;-88
2021/05/25 11:35:06;;;;;;;1.30;0.90;;;;;;;12.82;69.15;154652.31;5031345;28;20429;-75
2021/05/25 11:37:44;;;;;;;1.70;0.87;;;;;;;13.03;69.82;154705.50;5031489;28;20454;-75
2021/05/25 11:40:21;;;;;;;2.17;0.87;;;;;;;13.19;67.88;154748.38;5019608;28;20452;-75
2021/05/25 11:42:56;;;;;;;1.27;0.90;;;;;;;13.19;65.25;154747.06;5015800;28;20974;-75
2021/05/25 11:45:32;;;;;;;1.27;0.67;;;;;;;13.26;63.09;154765.28;5027009;28;20471;-75
2021/05/25 11:48:08;;;;;;;2.20;1.10;;;;;;;13.32;60.55;154782.13;5029926;28;20445;-75
2021/05/25 11:50:55;;;;;;;1.57;0.77;;;;;;;13.44;59.69;154811.97;5028939;28;20543;-75
2021/05/25 11:54:17;;;;;;;1.07;0.70;;;;;;;13.58;59.73;154847.03;4951393;29;21067;-77
2021/05/25 11:56:54;;;;;;;1.50;0.73;;;;;;;13.58;58.45;154847.03;5031098;28;20460;-75
2021/05/25 11:59:29;;;;;;;1.50;0.70;;;;;;;13.62;57.96;154858.69;5035023;28;20811;-77
2021/05/25 12:02:07;;;;;;;0.90;0.80;;;;;;;13.75;59.10;154891.13;5040435;28;20440;-75
2021/05/25 12:04:42;;;;;;;1.53;0.60;;;;;;;13.67;56.74;154870.34;5032496;28;20896;-76
2021/05/25 12:07:22;;;;;;;2.50;0.90;;;;;;;13.79;56.49;154901.53;5032366;28;20446;-76
2021/05/25 12:10:00;;;;;;;0.87;0.63;;;;;;;13.83;54.97;154911.91;5029960;28;20446;-76
2021/05/25 12:13:02;;;;;;;2.27;0.93;;;;;;;13.86;58.60;154921.00;5030954;28;20486;-76
2021/05/25 12:15:52;;;;;;;1.17;0.80;;;;;;;13.78;56.27;154900.22;5013438;28;20436;-76
2021/05/25 12:18:36;;;;;;;2.67;1.07;;;;;;;13.87;55.12;154923.56;5030480;28;20444;-76
2021/05/25 12:21:11;;;;;;;1.40;0.87;;;;;;;13.96;54.50;154946.94;5030283;28;20457;-76
2021/05/25 12:23:46;;;;;;;3.00;0.90;;;;;;;13.95;55.05;154943.09;5030391;28;20861;-76
2021/05/25 12:26:24;;;;;;;1.77;0.80;;;;;;;13.97;52.53;154948.25;5030235;28;20489;-75
2021/05/25 12:28:59;;;;;;;1.70;0.80;;;;;;;13.90;51.89;154930.06;5030785;28;20468;-76
2021/05/25 12:31:34;;;;;;;0.90;0.60;;;;;;;13.91;54.81;154932.66;5043817;28;20453;-76
2021/05/25 12:34:10;;;;;;;2.70;0.80;;;;;;;13.91;52.36;154932.66;5045744;28;20937;-75